< < Back
Terminal Aerodrome Forecast


Current Version              Previous Versions:   1  2  3  4  5  6  7  8  9  

Terminal Aerodrome Forecast

845
FTUS42 KFFC 281120
TAFFTY
TAF
KFTY 281120Z 2812/2912 06004KT P6SM FEW070
     FM281400 08006KT P6SM SCT045
     FM281900 07009KT P6SM SCT060
     FM290000 09004KT P6SM SCT250=

Latest METAR

418
SAUS70 KWBC 282200 RRB
MTRFTY
METAR KFTY 282153Z VRB05KT 10SM FEW055 33/19 A3006 RMK AO2 SLP166
T03330189


USA.gov is the U.S. government's official web portal to all federal, state and local government web resources and services.